createdAt,value
2022-08-14T00:02:01.626Z,1.50
2022-08-14T00:04:34.209Z,1.58
2022-08-14T00:07:06.809Z,1.50
2022-08-14T00:09:34.184Z,1.48
2022-08-14T00:12:24.089Z,1.60
2022-08-14T00:14:54.852Z,1.70
2022-08-14T00:17:22.826Z,1.50
2022-08-14T00:19:49.938Z,1.50
2022-08-14T00:22:22.083Z,1.40
2022-08-14T00:25:08.160Z,1.60
2022-08-14T00:27:37.583Z,1.55
2022-08-14T00:30:11.134Z,1.67
2022-08-14T00:32:52.939Z,1.45
2022-08-14T00:35:35.746Z,1.70
2022-08-14T00:38:10.763Z,1.50
2022-08-14T00:40:38.117Z,1.55
2022-08-14T00:43:06.337Z,1.40
2022-08-14T00:45:33.325Z,1.73
2022-08-14T00:48:00.396Z,1.88
2022-08-14T00:50:30.371Z,1.67
2022-08-14T00:53:00.130Z,1.38
2022-08-14T00:55:28.610Z,1.70
2022-08-14T00:58:17.632Z,1.70
2022-08-14T01:00:47.515Z,1.52
2022-08-14T01:03:22.001Z,1.70
2022-08-14T01:05:52.471Z,1.48
2022-08-14T01:08:52.137Z,2.05
2022-08-14T01:11:08.407Z,1.77
2022-08-14T01:13:42.888Z,1.40
2022-08-14T01:16:15.338Z,1.50
2022-08-14T01:19:02.449Z,1.45
2022-08-14T01:21:46.822Z,1.40
2022-08-14T01:24:24.843Z,1.42
2022-08-14T01:27:01.201Z,1.42
2022-08-14T01:29:58.538Z,1.75
2022-08-14T01:32:23.633Z,1.73
2022-08-14T01:35:20.627Z,1.52
2022-08-14T01:37:56.555Z,1.30
2022-08-14T01:40:36.971Z,1.63
2022-08-14T01:43:18.275Z,1.80
2022-08-14T01:45:57.719Z,2.38
2022-08-14T01:48:34.038Z,1.45
2022-08-14T01:51:19.045Z,1.38
2022-08-14T01:53:54.810Z,1.90
2022-08-14T01:56:37.409Z,1.70
2022-08-14T01:59:38.004Z,1.75
2022-08-14T02:02:14.757Z,2.17
2022-08-14T02:04:57.088Z,1.77
2022-08-14T02:07:34.446Z,1.90
2022-08-14T02:10:15.995Z,1.60
2022-08-14T02:12:54.093Z,1.60
2022-08-14T02:15:24.764Z,1.77
2022-08-14T02:17:51.539Z,1.70
2022-08-14T02:20:23.882Z,1.50
2022-08-14T02:22:52.813Z,1.65
2022-08-14T02:25:23.503Z,1.80
2022-08-14T02:28:24.232Z,1.60
2022-08-14T02:30:43.146Z,1.67
2022-08-14T02:33:10.764Z,1.80
2022-08-14T02:35:41.381Z,1.67
2022-08-14T02:38:11.937Z,1.63
2022-08-14T02:40:57.762Z,1.80
2022-08-14T02:43:24.766Z,2.40
2022-08-14T02:46:04.033Z,1.58
2022-08-14T02:49:05.325Z,1.83
2022-08-14T02:51:23.484Z,2.00
2022-08-14T02:53:51.997Z,1.80
2022-08-14T02:56:30.257Z,1.40
2022-08-14T02:59:09.423Z,1.48
2022-08-14T03:01:50.459Z,1.63
2022-08-14T03:04:20.708Z,1.45
2022-08-14T03:07:06.464Z,1.48
2022-08-14T03:10:24.753Z,1.83
2022-08-14T03:12:32.227Z,1.60
2022-08-14T03:15:03.014Z,1.70
2022-08-14T03:17:31.815Z,1.88
2022-08-14T03:20:11.283Z,2.00
2022-08-14T03:22:42.212Z,1.90
2022-08-14T03:25:11.912Z,1.67
2022-08-14T03:27:48.510Z,1.92
2022-08-14T03:30:24.938Z,1.73
2022-08-14T03:33:08.045Z,1.77
2022-08-14T03:35:39.945Z,1.92
2022-08-14T03:39:14.095Z,1.63
2022-08-14T03:40:56.826Z,1.73
2022-08-14T03:43:28.391Z,1.65
2022-08-14T03:46:00.354Z,1.85
2022-08-14T03:48:31.112Z,1.65
2022-08-14T03:50:59.618Z,1.58
2022-08-14T03:53:28.319Z,2.00
2022-08-14T03:55:58.992Z,1.85
2022-08-14T03:58:34.947Z,1.55
2022-08-14T04:01:04.190Z,2.00
2022-08-14T04:03:37.214Z,1.52
2022-08-14T04:06:05.237Z,1.60
2022-08-14T04:08:36.510Z,1.65
2022-08-14T04:11:10.111Z,1.35
2022-08-14T04:13:41.817Z,1.77
2022-08-14T04:16:14.047Z,1.67
2022-08-14T04:18:46.467Z,1.65
2022-08-14T04:21:16.299Z,1.67
2022-08-14T04:23:45.566Z,1.45
2022-08-14T04:26:41.929Z,1.90
2022-08-14T04:29:14.508Z,1.70
2022-08-14T04:33:00.249Z,1.70
2022-08-14T04:34:29.810Z,1.70
2022-08-14T04:37:22.187Z,1.50
2022-08-14T04:40:11.602Z,1.60
2022-08-14T04:42:57.726Z,1.80
2022-08-14T04:45:25.975Z,1.88
2022-08-14T04:48:39.646Z,1.80
2022-08-14T04:51:04.357Z,1.63
2022-08-14T04:53:35.341Z,1.70
2022-08-14T04:56:05.895Z,2.15
2022-08-14T04:58:37.767Z,1.73
2022-08-14T05:01:12.721Z,1.40
2022-08-14T05:03:44.809Z,1.70
2022-08-14T05:06:38.558Z,1.50
2022-08-14T05:09:00.319Z,1.70
2022-08-14T05:11:27.593Z,1.70
2022-08-14T05:14:42.787Z,1.95
2022-08-14T05:16:44.137Z,2.05
2022-08-14T05:19:17.801Z,1.40
2022-08-14T05:21:59.491Z,1.65
2022-08-14T05:24:29.218Z,1.98
2022-08-14T05:26:56.250Z,1.90
2022-08-14T05:29:23.929Z,1.95
2022-08-14T05:31:56.017Z,1.63
2022-08-14T05:34:32.014Z,1.50
2022-08-14T05:37:02.345Z,1.63
2022-08-14T05:39:31.290Z,1.65
2022-08-14T05:41:58.916Z,1.83
2022-08-14T05:44:30.175Z,1.90
2022-08-14T05:46:58.568Z,1.60
2022-08-14T05:49:33.421Z,1.70
2022-08-14T05:52:02.294Z,2.00
2022-08-14T05:54:35.650Z,1.50
2022-08-14T05:57:04.721Z,2.17
2022-08-14T05:59:38.935Z,1.50
2022-08-14T06:02:11.377Z,1.50
2022-08-14T06:07:06.546Z,1.45
2022-08-14T06:09:35.541Z,1.58
2022-08-14T06:12:10.659Z,1.95
2022-08-14T06:14:39.271Z,1.80
2022-08-14T06:17:06.642Z,1.60
2022-08-14T06:19:33.405Z,1.75
2022-08-14T06:22:00.161Z,1.83
2022-08-14T06:24:30.682Z,1.67
2022-08-14T06:27:06.148Z,1.90
2022-08-14T06:29:38.028Z,1.85
2022-08-14T06:32:37.645Z,1.90
2022-08-14T06:35:03.352Z,2.25
2022-08-14T06:37:57.491Z,1.70
2022-08-14T06:40:30.250Z,1.40
2022-08-14T06:43:06.979Z,1.65
2022-08-14T06:45:36.204Z,1.70
2022-08-14T06:48:05.949Z,1.70
2022-08-14T06:50:33.633Z,1.98
2022-08-14T06:53:01.037Z,1.65
2022-08-14T06:55:29.394Z,1.80
2022-08-14T06:57:57.753Z,1.75
2022-08-14T07:00:31.100Z,1.80
2022-08-14T07:03:19.201Z,1.77
2022-08-14T07:05:55.785Z,2.00
2022-08-14T07:08:31.360Z,2.00
2022-08-14T07:11:01.108Z,1.60
2022-08-14T07:13:28.449Z,1.90
2022-08-14T07:15:58.440Z,1.67
2022-08-14T07:18:33.846Z,1.38
2022-08-14T07:21:02.398Z,1.40
2022-08-14T07:23:31.139Z,1.70
2022-08-14T07:25:59.839Z,1.80
2022-08-14T07:28:33.066Z,1.60
2022-08-14T07:31:04.931Z,1.50
2022-08-14T07:33:49.925Z,1.60
2022-08-14T07:36:30.357Z,1.60
2022-08-14T07:39:02.990Z,1.65
2022-08-14T07:41:33.559Z,1.70
2022-08-14T07:44:28.887Z,1.67
2022-08-14T07:46:49.672Z,1.45
2022-08-14T07:49:17.889Z,1.80
2022-08-14T07:51:45.511Z,1.63
2022-08-14T07:54:12.672Z,1.38
2022-08-14T07:59:41.348Z,1.48
2022-08-14T08:02:18.061Z,1.58
2022-08-14T08:04:59.354Z,1.80
2022-08-14T08:07:29.829Z,1.73
2022-08-14T08:09:59.693Z,1.88
2022-08-14T08:12:38.685Z,1.37
2022-08-14T08:15:07.775Z,1.50
2022-08-14T08:17:53.321Z,1.40
2022-08-14T08:20:27.434Z,1.67
2022-08-14T08:23:00.464Z,1.48
2022-08-14T08:25:40.015Z,1.60
2022-08-14T08:28:22.409Z,1.50
2022-08-14T08:30:59.986Z,1.30
2022-08-14T08:33:37.248Z,1.52
2022-08-14T08:36:07.995Z,1.60
2022-08-14T08:39:17.001Z,1.30
2022-08-14T08:41:22.964Z,1.67
2022-08-14T08:43:51.185Z,1.58
2022-08-14T08:46:23.898Z,1.58
2022-08-14T08:51:37.531Z,1.70
2022-08-14T08:54:14.991Z,1.67
2022-08-14T08:56:47.283Z,1.52
2022-08-14T08:59:27.038Z,1.38
2022-08-14T09:02:01.693Z,2.00
2022-08-14T09:04:45.335Z,1.25
2022-08-14T09:07:25.494Z,1.75
2022-08-14T09:09:59.432Z,1.33
2022-08-14T09:12:29.873Z,1.58
2022-08-14T09:15:12.014Z,1.40
2022-08-14T09:17:42.070Z,1.30
2022-08-14T09:20:11.750Z,1.30
2022-08-14T09:22:47.802Z,1.65
2022-08-14T09:25:19.626Z,1.75
2022-08-14T09:27:49.106Z,1.63
2022-08-14T09:30:32.872Z,1.60
2022-08-14T09:33:11.215Z,1.30
2022-08-14T09:36:13.678Z,1.00
2022-08-14T09:38:40.780Z,1.30
2022-08-14T09:42:20.027Z,1.27
2022-08-14T09:44:45.788Z,1.70
2022-08-14T09:47:15.066Z,1.65
2022-08-14T09:49:42.771Z,1.40
2022-08-14T09:52:33.534Z,1.42
2022-08-14T09:55:01.443Z,1.27
2022-08-14T09:57:31.300Z,1.20
2022-08-14T10:00:09.858Z,1.73
2022-08-14T10:03:03.583Z,1.63
2022-08-14T10:05:34.956Z,1.42
2022-08-14T10:08:25.584Z,1.33
2022-08-14T10:11:02.349Z,1.90
2022-08-14T10:13:43.259Z,1.50
2022-08-14T10:16:27.391Z,1.38
2022-08-14T10:19:13.316Z,1.40
2022-08-14T10:23:12.842Z,1.58
2022-08-14T10:24:50.776Z,1.60
2022-08-14T10:27:23.341Z,1.63
2022-08-14T10:29:52.356Z,1.90
2022-08-14T10:32:29.169Z,1.67
2022-08-14T10:35:14.788Z,1.40
2022-08-14T10:37:50.371Z,1.30
2022-08-14T10:40:37.530Z,1.15
2022-08-14T10:43:26.046Z,1.30
2022-08-14T10:45:59.703Z,1.42
2022-08-14T10:49:04.469Z,1.50
2022-08-14T10:51:39.911Z,1.30
2022-08-14T10:54:17.088Z,1.50
2022-08-14T10:56:59.010Z,1.33
2022-08-14T10:59:30.891Z,1.80
2022-08-14T11:02:02.387Z,1.33
2022-08-14T11:04:30.846Z,1.52
2022-08-14T11:06:58.477Z,1.23
2022-08-14T11:09:26.401Z,1.33
2022-08-14T11:12:34.750Z,1.23
2022-08-14T11:15:10.973Z,1.52
2022-08-14T11:17:38.663Z,1.50
2022-08-14T11:20:14.079Z,1.70
2022-08-14T11:22:55.888Z,1.40
2022-08-14T11:25:43.204Z,1.42
2022-08-14T11:28:14.500Z,1.40
2022-08-14T11:30:53.314Z,1.20
2022-08-14T11:33:25.059Z,1.10
2022-08-14T11:35:51.841Z,1.33
2022-08-14T11:38:21.636Z,1.15
2022-08-14T11:40:48.531Z,1.20
2022-08-14T11:43:16.346Z,1.92
2022-08-14T11:45:48.613Z,1.40
2022-08-14T11:49:03.104Z,1.40
2022-08-14T11:51:23.866Z,1.40
2022-08-14T11:54:19.878Z,1.40
2022-08-14T11:56:51.282Z,1.20
2022-08-14T11:59:19.985Z,1.30
2022-08-14T12:01:54.903Z,1.40
2022-08-14T12:04:33.022Z,1.20
2022-08-14T12:07:01.466Z,1.50
2022-08-14T12:09:29.739Z,1.50
2022-08-14T12:11:56.717Z,1.33
2022-08-14T12:14:30.670Z,1.40
2022-08-14T12:17:09.454Z,1.30
2022-08-14T12:19:53.913Z,1.88
2022-08-14T12:22:37.614Z,1.33
2022-08-14T12:25:11.418Z,1.50
2022-08-14T12:27:53.587Z,1.35
2022-08-14T12:30:35.878Z,1.48
2022-08-14T12:33:08.546Z,1.42
2022-08-14T12:35:42.798Z,1.95
2022-08-14T12:38:21.074Z,1.42
2022-08-14T12:40:50.694Z,2.25
2022-08-14T12:43:19.688Z,1.50
2022-08-14T12:45:55.017Z,1.67
2022-08-14T12:48:32.042Z,1.90
2022-08-14T12:50:59.712Z,3.42
2022-08-14T12:53:38.457Z,2.20
2022-08-14T12:56:21.898Z,2.28
2022-08-14T12:58:57.322Z,2.55
2022-08-14T13:01:30.946Z,2.22
2022-08-14T13:04:05.104Z,2.53
2022-08-14T13:06:33.817Z,2.03
2022-08-14T13:09:01.090Z,2.63
2022-08-14T13:11:41.410Z,2.28
2022-08-14T13:14:17.530Z,2.45
2022-08-14T13:16:50.486Z,2.72
2022-08-14T13:19:18.423Z,2.33
2022-08-14T13:22:05.298Z,2.28
2022-08-14T13:24:39.569Z,2.10
2022-08-14T13:27:10.002Z,2.10
2022-08-14T13:29:46.702Z,2.80
2022-08-14T13:32:14.439Z,2.45
2022-08-14T13:34:45.380Z,2.45
2022-08-14T13:37:15.250Z,2.50
2022-08-14T13:39:56.833Z,2.47
2022-08-14T13:42:30.897Z,2.55
2022-08-14T13:45:01.477Z,2.50
2022-08-14T13:47:30.528Z,2.60
2022-08-14T13:50:02.621Z,2.80
2022-08-14T13:52:52.766Z,3.03
2022-08-14T13:55:27.995Z,3.45
2022-08-14T13:58:04.519Z,3.28
2022-08-14T14:00:35.730Z,3.20
2022-08-14T14:03:20.664Z,3.35
2022-08-14T14:05:54.340Z,3.10
2022-08-14T14:08:45.713Z,3.35
2022-08-14T14:11:10.417Z,3.42
2022-08-14T14:13:44.760Z,3.83
2022-08-14T14:16:15.457Z,3.67
2022-08-14T14:21:38.071Z,3.58
2022-08-14T14:24:08.068Z,3.75
2022-08-14T14:26:46.209Z,3.30
2022-08-14T14:29:14.446Z,3.88
2022-08-14T14:31:45.917Z,3.60
2022-08-14T14:34:30.205Z,3.72
2022-08-14T14:37:02.718Z,4.32
2022-08-14T14:39:31.453Z,3.90
2022-08-14T14:42:06.104Z,3.83
2022-08-14T14:44:40.234Z,4.40
2022-08-14T14:47:10.103Z,4.18
2022-08-14T14:52:27.656Z,4.25
2022-08-14T14:54:59.071Z,3.97
2022-08-14T15:00:12.956Z,3.92
2022-08-14T15:02:43.370Z,4.32
2022-08-14T15:05:13.105Z,4.22
2022-08-14T15:07:41.417Z,3.72
2022-08-14T15:10:27.843Z,4.20
2022-08-14T15:13:04.263Z,3.85
2022-08-14T15:15:33.663Z,3.72
2022-08-14T15:18:14.803Z,4.10
2022-08-14T15:20:55.067Z,4.03
2022-08-14T15:23:23.458Z,3.78
2022-08-14T15:25:52.429Z,4.18
2022-08-14T15:28:21.474Z,3.95
2022-08-14T15:30:57.816Z,3.83
2022-08-14T15:34:13.292Z,3.97
2022-08-14T15:36:31.388Z,4.40
2022-08-14T15:38:59.117Z,3.47
2022-08-14T15:41:26.814Z,3.60
2022-08-14T15:44:00.976Z,3.80
2022-08-14T15:46:43.345Z,3.97
2022-08-14T15:49:12.598Z,4.07
2022-08-14T15:51:42.084Z,3.47
2022-08-14T15:56:42.886Z,4.82
2022-08-14T15:59:10.392Z,3.90
2022-08-14T16:01:53.848Z,3.85
2022-08-14T16:04:22.757Z,3.70
2022-08-14T16:06:54.564Z,4.20
2022-08-14T16:09:22.885Z,3.80
2022-08-14T16:11:50.776Z,3.50
2022-08-14T16:14:21.506Z,3.60
2022-08-14T16:17:00.487Z,3.28
2022-08-14T16:19:31.528Z,3.83
2022-08-14T16:22:58.179Z,2.80
2022-08-14T16:25:02.041Z,3.30
2022-08-14T16:27:37.259Z,3.65
2022-08-14T16:30:12.327Z,3.53
2022-08-14T16:32:56.938Z,3.13
2022-08-14T16:38:19.522Z,3.85
2022-08-14T16:40:25.408Z,3.58
2022-08-14T16:41:22.841Z,3.03
2022-08-14T16:43:59.166Z,3.15
2022-08-14T16:46:28.010Z,3.60
2022-08-14T16:48:58.373Z,3.08
2022-08-14T16:51:28.083Z,2.80
2022-08-14T16:53:56.563Z,2.60
2022-08-14T16:56:28.046Z,2.75
2022-08-14T16:59:52.825Z,2.83
2022-08-14T17:02:44.091Z,3.00
2022-08-14T17:05:17.138Z,2.97
2022-08-14T17:08:03.795Z,3.38
2022-08-14T17:10:50.444Z,2.80
2022-08-14T17:13:59.591Z,2.45
2022-08-14T17:16:25.465Z,3.13
2022-08-14T17:19:00.910Z,2.75
2022-08-14T17:21:31.600Z,2.80
2022-08-14T17:24:57.433Z,2.38
2022-08-14T17:26:55.528Z,2.50
2022-08-14T17:29:29.243Z,2.47
2022-08-14T17:32:06.284Z,2.42
2022-08-14T17:34:52.674Z,2.60
2022-08-14T17:37:30.488Z,2.00
2022-08-14T17:40:16.442Z,2.47
2022-08-14T17:42:51.036Z,2.80
2022-08-14T17:45:47.028Z,2.38
2022-08-14T17:49:14.441Z,2.28
2022-08-14T17:51:23.219Z,2.50
2022-08-14T17:53:53.562Z,2.42
2022-08-14T17:56:30.837Z,2.28
2022-08-14T17:59:07.005Z,2.47
2022-08-14T18:01:40.678Z,2.92
2022-08-14T18:04:24.938Z,2.65
2022-08-14T18:07:08.645Z,2.28
2022-08-14T18:09:56.910Z,2.15
2022-08-14T18:12:32.921Z,2.03
2022-08-14T18:15:16.818Z,2.33
2022-08-14T18:17:52.612Z,2.77
2022-08-14T18:21:42.152Z,2.33
2022-08-14T18:23:12.901Z,2.40
2022-08-14T18:25:50.383Z,2.92
2022-08-14T18:28:48.564Z,2.40
2022-08-14T18:31:23.214Z,2.40
2022-08-14T18:34:32.322Z,2.00
2022-08-14T18:37:13.898Z,2.58
2022-08-14T18:40:03.420Z,2.22
2022-08-14T18:42:35.049Z,2.25
2022-08-14T18:48:06.507Z,2.55
2022-08-14T18:50:32.210Z,1.95
2022-08-14T18:53:10.910Z,2.08
2022-08-14T18:55:47.528Z,2.50
2022-08-14T18:58:28.019Z,2.58
2022-08-14T19:00:59.925Z,2.55
2022-08-14T19:03:45.051Z,3.22
2022-08-14T19:06:16.466Z,2.50
2022-08-14T19:08:49.029Z,2.50
2022-08-14T19:11:50.534Z,2.40
2022-08-14T19:14:45.555Z,2.42
2022-08-14T19:17:42.222Z,2.85
2022-08-14T19:20:10.294Z,2.67
2022-08-14T19:22:42.963Z,2.20
2022-08-14T19:25:13.722Z,2.75
2022-08-14T19:27:46.021Z,2.88
2022-08-14T19:30:20.546Z,2.80
2022-08-14T19:32:52.434Z,2.75
2022-08-14T19:35:24.800Z,2.53
2022-08-14T19:38:10.333Z,3.92
2022-08-14T19:40:58.474Z,3.08
2022-08-14T19:43:55.998Z,4.03
2022-08-14T19:46:39.582Z,3.60
2022-08-14T19:49:23.183Z,3.97
2022-08-14T19:52:04.515Z,4.35
2022-08-14T19:54:44.480Z,4.40
2022-08-14T19:57:20.433Z,5.10
2022-08-14T19:59:57.261Z,4.97
2022-08-14T20:02:30.136Z,4.78
2022-08-14T20:05:03.732Z,5.65
2022-08-14T20:07:59.386Z,4.15
2022-08-14T20:11:03.833Z,4.80
2022-08-14T20:13:14.567Z,4.80
2022-08-14T20:15:51.111Z,4.10
2022-08-14T20:18:49.972Z,4.30
2022-08-14T20:21:13.624Z,4.22
2022-08-14T20:23:41.014Z,3.78
2022-08-14T20:26:31.354Z,4.30
2022-08-14T20:29:05.376Z,4.18
2022-08-14T20:31:36.637Z,4.20
2022-08-14T20:34:18.984Z,3.95
2022-08-14T20:37:09.826Z,3.50
2022-08-14T20:39:54.591Z,4.20
2022-08-14T20:42:43.477Z,3.42
2022-08-14T20:45:23.861Z,3.60
2022-08-14T20:48:07.351Z,3.17
2022-08-14T20:50:45.026Z,4.07
2022-08-14T20:53:32.409Z,3.90
2022-08-14T20:56:04.625Z,4.00
2022-08-14T20:58:48.075Z,4.22
2022-08-14T21:01:14.902Z,4.00
2022-08-14T21:03:57.098Z,4.05
2022-08-14T21:07:22.952Z,3.00
2022-08-14T21:09:43.940Z,3.17
2022-08-14T21:12:34.698Z,3.80
2022-08-14T21:15:00.846Z,3.83
2022-08-14T21:17:29.550Z,4.20
2022-08-14T21:19:56.741Z,3.78
2022-08-14T21:22:24.931Z,4.15
2022-08-14T21:25:02.217Z,4.05
2022-08-14T21:27:45.985Z,3.78
2022-08-14T21:30:20.973Z,3.53
2022-08-14T21:32:57.861Z,3.63
2022-08-14T21:35:26.006Z,3.20
2022-08-14T21:37:53.691Z,3.88
2022-08-14T21:40:41.733Z,3.70
2022-08-14T21:43:14.855Z,3.83
2022-08-14T21:45:53.472Z,3.35
2022-08-14T21:48:29.743Z,4.53
2022-08-14T21:51:52.450Z,4.35
2022-08-14T21:53:54.125Z,4.50
2022-08-14T21:56:39.621Z,4.05
2022-08-14T21:59:10.536Z,3.90
2022-08-14T22:02:00.460Z,4.00
2022-08-14T22:04:33.173Z,4.05
2022-08-14T22:07:16.909Z,3.80
2022-08-14T22:09:44.611Z,3.88
2022-08-14T22:12:11.545Z,4.05
2022-08-14T22:14:58.473Z,3.42
2022-08-14T22:17:26.092Z,4.63
2022-08-14T22:19:59.624Z,4.20
2022-08-14T22:22:26.736Z,4.10
2022-08-14T22:24:59.971Z,4.07
2022-08-14T22:27:32.476Z,3.92
2022-08-14T22:30:01.287Z,3.80
2022-08-14T22:32:35.099Z,3.83
2022-08-14T22:35:04.126Z,5.10
2022-08-14T22:37:39.634Z,4.53
2022-08-14T22:40:46.237Z,4.10
2022-08-14T22:43:08.334Z,4.63
2022-08-14T22:45:37.785Z,4.30
2022-08-14T22:48:11.190Z,4.40
2022-08-14T22:50:53.132Z,4.53
2022-08-14T22:53:21.802Z,4.00
2022-08-14T22:55:51.936Z,3.65
2022-08-14T22:58:31.425Z,3.90
2022-08-14T23:01:04.666Z,3.88
2022-08-14T23:03:36.149Z,3.75
2022-08-14T23:06:04.324Z,3.63
2022-08-14T23:09:01.505Z,4.60
2022-08-14T23:11:39.210Z,4.50
2022-08-14T23:14:12.250Z,3.70
2022-08-14T23:16:39.595Z,4.72
2022-08-14T23:19:11.584Z,5.18
2022-08-14T23:21:46.365Z,4.63
2022-08-14T23:24:14.086Z,4.10
2022-08-14T23:26:47.762Z,4.38
2022-08-14T23:29:21.103Z,4.32
2022-08-14T23:31:49.108Z,4.47
2022-08-14T23:34:20.630Z,4.25
2022-08-14T23:36:52.957Z,3.30
2022-08-14T23:39:30.246Z,4.20
2022-08-14T23:42:04.449Z,4.20
2022-08-14T23:44:35.118Z,3.92
2022-08-14T23:47:05.518Z,4.35
2022-08-14T23:49:56.972Z,3.65
2022-08-14T23:52:51.095Z,3.83
2022-08-14T23:55:10.976Z,3.90
2022-08-14T23:57:43.903Z,5.03
